Time;durP1;ratioP1;P1;durP2;ratioP2;P2;SDS_P1;SDS_P2;PMS_P1;PMS_P2;Temp;Humidity;BMP_temperature;BMP_pressure;BME280_temperature;BME280_humidity;BME280_pressure;Samples;Min_cycle;Max_cycle;Signal;HPM_P1;HPM_P2
2023/09/27 00:00:14;;;;;;;16.25;10.23;;;;;;;16.35;87.46;101583.69;1822890;79;21067;-77
2023/09/27 00:02:43;;;;;;;16.27;10.08;;;;;;;16.34;87.28;101589.42;1822428;79;21024;-75
2023/09/27 00:05:13;;;;;;;15.58;9.83;;;;;;;16.32;87.31;101591.02;1822985;78;21052;-76
2023/09/27 00:07:42;;;;;;;15.90;10.48;;;;;;;16.30;87.38;101588.13;1822767;79;21028;-76
2023/09/27 00:10:12;;;;;;;17.37;10.08;;;;;;;16.30;87.52;101582.08;1822446;79;20989;-77
2023/09/27 00:12:41;;;;;;;13.80;9.73;;;;;;;16.33;87.56;101587.72;1795571;79;21139;-78
2023/09/27 00:15:12;;;;;;;13.88;9.68;;;;;;;16.33;87.57;101579.42;1822848;79;20997;-78
2023/09/27 00:17:43;;;;;;;13.22;9.43;;;;;;;16.33;87.62;101577.51;1822797;79;21008;-77
2023/09/27 00:20:15;;;;;;;16.52;10.80;;;;;;;16.34;87.56;101578.36;1822788;79;21502;-79
2023/09/27 00:22:44;;;;;;;15.38;9.70;;;;;;;16.29;87.60;101575.36;1822982;78;21025;-78
2023/09/27 00:25:14;;;;;;;15.98;9.48;;;;;;;16.30;87.77;101575.69;1822898;78;21021;-78
2023/09/27 00:27:43;;;;;;;16.35;9.73;;;;;;;16.30;87.89;101572.92;1822711;78;21499;-77
2023/09/27 00:30:15;;;;;;;16.20;9.95;;;;;;;16.31;87.86;101571.86;1823002;79;21136;-80
2023/09/27 00:32:45;;;;;;;14.83;10.30;;;;;;;16.30;87.80;101571.54;1822753;79;21063;-80
2023/09/27 00:35:24;;;;;;;14.03;9.73;;;;;;;16.30;87.85;101575.16;1822919;79;21024;-78
2023/09/27 00:37:49;;;;;;;15.28;9.38;;;;;;;16.32;87.78;101569.42;1821495;79;21048;-80
2023/09/27 00:40:22;;;;;;;17.52;11.83;;;;;;;16.30;87.78;101573.77;1822673;79;21052;-79
2023/09/27 00:42:50;;;;;;;17.95;10.85;;;;;;;16.30;87.77;101569.63;1822717;79;21021;-80
2023/09/27 00:45:21;;;;;;;16.02;9.85;;;;;;;16.27;87.74;101563.66;1822724;78;21032;-79
2023/09/27 00:47:51;;;;;;;12.90;10.00;;;;;;;16.26;87.81;101564.18;1795759;79;21127;-78
2023/09/27 00:50:20;;;;;;;13.32;9.43;;;;;;;16.24;87.68;101563.50;1822902;79;21099;-80
2023/09/27 00:52:50;;;;;;;15.15;9.70;;;;;;;16.20;87.95;101568.27;1822719;78;21506;-80
2023/09/27 00:55:20;;;;;;;14.18;9.50;;;;;;;16.19;88.09;101572.95;1822894;79;21040;-79
2023/09/27 00:57:51;;;;;;;14.00;9.55;;;;;;;16.17;88.34;101571.77;1822727;79;21044;-80
2023/09/27 01:00:20;;;;;;;14.30;9.30;;;;;;;16.21;88.44;101571.36;1823236;79;21448;-79
2023/09/27 01:02:51;;;;;;;12.82;9.35;;;;;;;16.20;88.36;101578.80;1822638;79;21075;-83
2023/09/27 01:05:20;;;;;;;13.70;9.53;;;;;;;16.14;88.38;101576.86;1822784;78;21033;-80
2023/09/27 01:07:49;;;;;;;13.98;9.73;;;;;;;16.12;88.58;101572.92;1822824;79;20993;-80
2023/09/27 01:10:19;;;;;;;13.68;9.38;;;;;;;16.12;88.67;101569.30;1822716;79;21104;-79
2023/09/27 01:12:48;;;;;;;16.30;10.00;;;;;;;16.11;88.62;101578.66;1822691;79;21451;-77
2023/09/27 01:15:17;;;;;;;12.28;9.05;;;;;;;16.07;88.71;101574.59;1822718;79;21055;-80
2023/09/27 01:17:57;;;;;;;14.43;9.78;;;;;;;16.06;88.89;101571.51;1822755;79;21035;-80
2023/09/27 01:20:29;;;;;;;12.90;9.40;;;;;;;16.07;88.90;101574.06;1822924;79;21088;-79
2023/09/27 01:23:05;;;;;;;13.50;9.43;;;;;;;16.08;88.95;101571.63;1822855;79;21020;-79
2023/09/27 01:25:38;;;;;;;12.13;9.40;;;;;;;16.12;88.96;101577.59;1822955;79;21157;-80
2023/09/27 01:28:09;;;;;;;16.30;8.88;;;;;;;16.10;88.87;101566.74;1822852;79;21123;-79
2023/09/27 01:30:39;;;;;;;13.53;9.40;;;;;;;16.12;88.86;101569.30;1822938;79;21080;-79
2023/09/27 01:33:10;;;;;;;16.12;9.98;;;;;;;16.13;88.80;101566.33;1822670;79;21516;-78
2023/09/27 01:35:41;;;;;;;15.28;9.53;;;;;;;16.15;88.73;101571.12;1822864;79;21048;-80
2023/09/27 01:38:12;;;;;;;13.85;9.58;;;;;;;16.13;88.68;101564.09;1822955;79;20988;-79
2023/09/27 01:40:44;;;;;;;16.10;9.68;;;;;;;16.11;88.44;101568.98;1822781;79;21087;-79
2023/09/27 01:43:14;;;;;;;17.40;10.38;;;;;;;16.04;88.45;101573.09;1823014;79;21001;-81
2023/09/27 01:45:43;;;;;;;16.17;9.88;;;;;;;16.02;88.43;101577.13;1822747;78;21052;-80
2023/09/27 01:48:12;;;;;;;15.65;9.53;;;;;;;15.96;88.57;101571.03;1822798;79;21262;-81
2023/09/27 01:50:41;;;;;;;13.55;9.85;;;;;;;15.96;88.69;101576.03;1822887;79;20976;-79
2023/09/27 01:53:11;;;;;;;13.55;9.95;;;;;;;15.94;88.69;101571.23;1822783;79;21020;-79
2023/09/27 01:55:40;;;;;;;17.32;10.40;;;;;;;15.87;88.65;101577.25;1823104;79;21023;-80
2023/09/27 01:58:10;;;;;;;15.78;10.35;;;;;;;15.81;88.83;101582.22;1822905;79;21032;-80
2023/09/27 02:00:39;;;;;;;14.50;9.75;;;;;;;15.77;89.04;101576.24;1823064;79;21004;-82
2023/09/27 02:03:09;;;;;;;13.85;9.58;;;;;;;15.80;89.29;101578.59;1822998;79;21976;-79
2023/09/27 02:05:38;;;;;;;14.75;10.32;;;;;;;15.85;89.23;101580.75;1822850;79;21080;-78
2023/09/27 02:08:11;;;;;;;15.55;10.28;;;;;;;15.88;89.06;101583.11;1822991;79;21048;-80
2023/09/27 02:10:38;;;;;;;14.45;10.58;;;;;;;15.89;88.79;101583.44;1822926;79;21075;-80
2023/09/27 02:13:08;;;;;;;15.83;9.70;;;;;;;15.85;88.64;101580.75;1822964;79;21518;-81
2023/09/27 02:15:37;;;;;;;14.00;9.90;;;;;;;15.78;88.59;101579.86;1822863;79;20988;-81
2023/09/27 02:18:07;;;;;;;15.70;9.80;;;;;;;15.74;88.65;101578.03;1796221;79;21008;-81
2023/09/27 02:20:36;;;;;;;19.50;10.55;;;;;;;15.70;88.72;101573.97;1823086;79;21039;-81
2023/09/27 02:23:05;;;;;;;14.47;9.73;;;;;;;15.70;88.79;101573.97;1822880;79;21028;-80
2023/09/27 02:25:35;;;;;;;14.75;10.00;;;;;;;15.70;88.72;101581.41;1823010;79;21083;-79
2023/09/27 02:28:06;;;;;;;17.27;9.85;;;;;;;15.69;88.70;101573.64;1822884;79;21036;-79
2023/09/27 02:30:35;;;;;;;13.68;9.93;;;;;;;15.69;88.68;101583.84;1822847;78;21068;-81
2023/09/27 02:33:04;;;;;;;16.55;9.40;;;;;;;15.67;88.67;101579.05;1823316;79;21495;-80
2023/09/27 02:35:34;;;;;;;12.65;9.25;;;;;;;15.62;88.67;101578.27;1822817;79;21029;-80
2023/09/27 02:38:06;;;;;;;17.10;9.60;;;;;;;15.59;88.88;101586.08;1771175;79;21681;-80
2023/09/27 02:40:36;;;;;;;14.73;9.98;;;;;;;15.58;89.08;101587.13;1823094;79;21056;-81
2023/09/27 02:43:05;;;;;;;13.80;9.43;;;;;;;15.60;89.15;101585.02;1822852;79;20980;-82
2023/09/27 02:45:34;;;;;;;13.68;9.75;;;;;;;15.63;89.14;101591.56;1823115;79;21016;-80
2023/09/27 02:48:06;;;;;;;15.55;10.25;;;;;;;15.65;89.15;101593.59;1822435;79;21073;-80
2023/09/27 02:50:35;;;;;;;14.00;9.53;;;;;;;15.60;89.01;101590.55;1822206;79;21071;-81
2023/09/27 02:53:04;;;;;;;14.55;9.33;;;;;;;15.53;89.01;101591.32;1822365;79;21060;-81
2023/09/27 02:55:34;;;;;;;14.65;9.55;;;;;;;15.50;89.26;101596.39;1822342;79;21083;-80
2023/09/27 02:58:05;;;;;;;14.15;9.15;;;;;;;15.49;89.46;101591.92;1822459;79;21083;-82
2023/09/27 03:00:34;;;;;;;16.35;9.75;;;;;;;15.48;89.37;101597.13;1822520;79;21397;-80
2023/09/27 03:03:04;;;;;;;13.68;9.40;;;;;;;15.48;89.54;101600.73;1822289;79;21012;-80
2023/09/27 03:05:38;;;;;;;17.05;9.48;;;;;;;15.46;89.62;101595.09;1822231;79;21025;-79
2023/09/27 03:08:08;;;;;;;12.90;9.08;;;;;;;15.45;89.76;101591.47;1822475;79;21052;-81
2023/09/27 03:10:38;;;;;;;13.68;9.10;;;;;;;15.44;89.76;101595.29;1822207;79;21490;-80
2023/09/27 03:13:09;;;;;;;13.70;9.65;;;;;;;15.46;89.97;101595.09;1822149;79;21533;-80
2023/09/27 03:15:39;;;;;;;13.03;9.15;;;;;;;15.49;89.95;101595.55;1822429;79;21043;-81
2023/09/27 03:18:10;;;;;;;13.38;9.10;;;;;;;15.48;89.95;101598.50;1822529;79;21012;-81
2023/09/27 03:20:40;;;;;;;12.28;8.68;;;;;;;15.50;89.87;101600.53;1822192;79;21028;-81
2023/09/27 03:23:09;;;;;;;13.48;8.63;;;;;;;15.51;89.68;101600.86;1822117;79;21060;-80
2023/09/27 03:25:39;;;;;;;12.60;9.20;;;;;;;15.47;89.46;101600.41;1822541;79;21024;-80
2023/09/27 03:28:08;;;;;;;15.28;10.65;;;;;;;15.44;89.38;101602.20;1822443;79;21033;-80
2023/09/27 03:30:37;;;;;;;13.55;10.08;;;;;;;15.44;89.46;101599.44;1822336;79;21016;-80
2023/09/27 03:33:07;;;;;;;16.60;10.68;;;;;;;15.44;89.32;101598.58;1822450;79;21443;-80
2023/09/27 03:35:36;;;;;;;17.25;11.10;;;;;;;15.41;89.31;101595.69;1822354;79;21060;-78
2023/09/27 03:38:05;;;;;;;16.48;10.60;;;;;;;15.42;89.34;101602.92;1822711;79;21099;-78
2023/09/27 03:40:35;;;;;;;15.88;9.55;;;;;;;15.42;89.23;101604.83;1822325;79;21032;-80
2023/09/27 03:43:06;;;;;;;14.43;9.23;;;;;;;15.39;89.22;101596.95;1822091;79;21468;-80
2023/09/27 03:45:36;;;;;;;15.45;9.10;;;;;;;15.38;89.38;101591.95;1822222;79;21251;-80
2023/09/27 03:48:06;;;;;;;12.07;8.63;;;;;;;15.43;89.34;101599.11;1819368;79;21059;-79
2023/09/27 03:50:35;;;;;;;11.10;8.63;;;;;;;15.42;89.26;101598.78;1818865;79;21525;-80
2023/09/27 03:53:04;;;;;;;12.73;9.35;;;;;;;15.40;89.32;101602.27;1819129;79;21004;-80
2023/09/27 03:55:34;;;;;;;13.60;8.70;;;;;;;15.36;89.46;101603.72;1819055;79;21455;-79
2023/09/27 03:58:04;;;;;;;11.40;8.08;;;;;;;15.36;89.62;101597.34;1819206;79;20992;-80
2023/09/27 04:00:33;;;;;;;10.35;7.95;;;;;;;15.36;89.59;101605.11;1819004;79;21694;-80
2023/09/27 04:03:03;;;;;;;17.12;8.75;;;;;;;15.33;89.63;101595.84;1818881;79;21004;-80
2023/09/27 04:05:32;;;;;;;11.80;8.68;;;;;;;15.33;89.64;101602.74;1819232;79;21068;-79
2023/09/27 04:08:02;;;;;;;12.82;8.60;;;;;;;15.33;89.65;101596.36;1788217;79;21029;-80
2023/09/27 04:10:31;;;;;;;14.87;8.50;;;;;;;15.32;89.75;101594.66;1819015;79;21028;-79
2023/09/27 04:13:00;;;;;;;13.10;8.28;;;;;;;15.34;89.75;101594.78;1818914;79;21103;-80
2023/09/27 04:15:30;;;;;;;11.90;8.90;;;;;;;15.35;89.59;101599.78;1819024;79;21036;-81
2023/09/27 04:17:59;;;;;;;12.40;9.28;;;;;;;15.35;89.47;101603.39;1819010;79;21005;-80
2023/09/27 04:20:28;;;;;;;14.23;8.43;;;;;;;15.31;89.31;101604.85;1819197;79;21021;-80
2023/09/27 04:22:58;;;;;;;12.63;8.80;;;;;;;15.30;89.28;101603.67;1818959;79;20984;-79
2023/09/27 04:25:27;;;;;;;14.50;9.18;;;;;;;15.27;89.23;101604.06;1819059;79;21095;-79
2023/09/27 04:27:56;;;;;;;14.00;8.15;;;;;;;15.22;89.21;101603.28;1819158;79;21029;-79
2023/09/27 04:30:25;;;;;;;14.00;8.35;;;;;;;15.21;89.28;101605.72;1819169;79;21056;-79
2023/09/27 04:32:54;;;;;;;14.75;8.63;;;;;;;15.19;89.44;101606.44;1819141;79;21056;-79
2023/09/27 04:35:23;;;;;;;14.83;8.75;;;;;;;15.21;89.55;101608.48;1819096;79;21024;-80
2023/09/27 04:37:53;;;;;;;11.28;7.92;;;;;;;15.23;89.62;101604.99;1819025;79;21040;-80
2023/09/27 04:40:22;;;;;;;12.40;8.48;;;;;;;15.26;89.56;101603.73;1819140;79;21008;-78
2023/09/27 04:42:51;;;;;;;12.82;8.48;;;;;;;15.31;89.47;101604.00;1819069;79;20990;-79
2023/09/27 04:45:20;;;;;;;13.10;8.38;;;;;;;15.34;89.43;101607.73;1788055;79;21024;-79
2023/09/27 04:47:49;;;;;;;11.22;8.23;;;;;;;15.37;89.37;101603.20;1818831;79;22078;-79
2023/09/27 04:50:19;;;;;;;13.35;7.83;;;;;;;15.38;89.15;101607.14;1818886;79;21389;-79
2023/09/27 04:52:48;;;;;;;11.35;7.80;;;;;;;15.39;89.18;101608.84;1819048;79;21012;-79
2023/09/27 04:55:18;;;;;;;12.53;8.43;;;;;;;15.42;89.12;101607.59;1819054;79;20996;-79
2023/09/27 04:57:47;;;;;;;12.88;7.83;;;;;;;15.44;89.03;101611.02;1818951;79;21039;-79
2023/09/27 05:00:19;;;;;;;12.15;9.55;;;;;;;15.46;88.86;101613.90;1818933;79;21052;-80
2023/09/27 05:02:46;;;;;;;11.25;8.75;;;;;;;15.49;88.68;101612.11;1818841;79;21472;-80
2023/09/27 05:05:16;;;;;;;11.63;7.37;;;;;;;15.49;88.44;101619.55;1818932;79;21409;-80
2023/09/27 05:07:45;;;;;;;12.07;7.67;;;;;;;15.50;88.37;101612.97;1819029;79;21051;-80
2023/09/27 05:10:14;;;;;;;13.60;7.72;;;;;;;15.52;88.27;101619.15;1819217;79;21060;-79
2023/09/27 05:12:44;;;;;;;16.62;8.55;;;;;;;15.56;88.11;101620.45;1818972;79;21008;-79
2023/09/27 05:15:13;;;;;;;10.40;7.78;;;;;;;15.58;87.94;101618.38;1818967;79;21460;-79
2023/09/27 05:17:42;;;;;;;11.40;7.72;;;;;;;15.62;87.91;101615.57;1819042;79;21000;-80
2023/09/27 05:20:12;;;;;;;10.90;7.95;;;;;;;15.66;87.69;101618.26;1819173;79;21044;-79
2023/09/27 05:22:42;;;;;;;11.45;8.70;;;;;;;15.68;87.48;101618.91;1819291;79;21037;-83
2023/09/27 05:25:11;;;;;;;10.45;7.60;;;;;;;15.69;87.25;101613.71;1819063;79;21032;-79
2023/09/27 05:27:41;;;;;;;13.72;7.80;;;;;;;15.69;86.91;101615.62;1818998;79;21086;-79
2023/09/27 05:30:11;;;;;;;11.28;7.60;;;;;;;15.65;86.92;101612.41;1819303;79;21024;-79
2023/09/27 05:32:43;;;;;;;16.10;7.67;;;;;;;15.64;86.87;101617.61;1819285;79;21040;-79
2023/09/27 05:35:11;;;;;;;11.95;7.92;;;;;;;15.67;86.79;101619.97;1818874;79;21079;-79
2023/09/27 05:37:42;;;;;;;12.25;7.60;;;;;;;15.68;86.68;101622.20;1819136;79;21039;-78
2023/09/27 05:40:12;;;;;;;11.95;8.13;;;;;;;15.70;86.62;101622.86;1819315;79;21047;-79
2023/09/27 05:42:41;;;;;;;13.45;8.50;;;;;;;15.74;86.59;101622.77;1819215;79;21028;-77
2023/09/27 05:45:11;;;;;;;12.58;7.72;;;;;;;15.76;86.42;101617.38;1819101;79;20980;-78
2023/09/27 05:47:41;;;;;;;11.48;7.85;;;;;;;15.79;86.25;101614.20;1819863;79;21107;-79
2023/09/27 05:50:12;;;;;;;13.62;8.83;;;;;;;15.82;86.14;101622.62;1822874;79;21091;-79
2023/09/27 05:52:44;;;;;;;12.28;8.55;;;;;;;15.87;86.04;101622.86;1822768;79;21032;-79
2023/09/27 05:55:15;;;;;;;14.33;8.65;;;;;;;15.93;85.79;101628.11;1823118;79;21048;-77
2023/09/27 05:57:44;;;;;;;14.30;8.25;;;;;;;15.96;85.52;101631.84;1822970;79;21051;-79
2023/09/27 06:00:21;;;;;;;13.25;7.92;;;;;;;16.00;85.44;101629.86;1822850;79;21484;-80
2023/09/27 06:02:47;;;;;;;18.20;8.90;;;;;;;16.05;85.29;101627.87;1822115;79;21048;-79
2023/09/27 06:05:16;;;;;;;12.82;8.28;;;;;;;16.10;85.11;101634.48;1822989;79;21067;-78
2023/09/27 06:07:45;;;;;;;16.75;9.25;;;;;;;16.13;84.94;101635.47;1822802;79;21067;-76
2023/09/27 06:10:15;;;;;;;14.73;8.88;;;;;;;16.16;84.62;101639.20;1822953;79;21009;-78
2023/09/27 06:12:45;;;;;;;11.57;8.10;;;;;;;16.20;84.53;101638.80;1822975;79;21055;-78
2023/09/27 06:15:14;;;;;;;13.18;9.08;;;;;;;16.26;84.42;101643.54;1822779;79;21530;-79
2023/09/27 06:17:43;;;;;;;17.87;9.25;;;;;;;16.32;84.21;101645.48;1822752;79;21048;-77
2023/09/27 06:20:19;;;;;;;12.53;8.25;;;;;;;16.37;84.08;101647.11;1822842;79;21063;-79
2023/09/27 06:22:45;;;;;;;12.65;8.43;;;;;;;16.46;83.84;101651.41;1822204;79;21007;-78
2023/09/27 06:25:17;;;;;;;12.68;8.63;;;;;;;16.51;83.55;101649.41;1822969;79;21040;-79
2023/09/27 06:27:47;;;;;;;11.50;8.10;;;;;;;16.55;83.23;101650.70;1822880;79;21544;-80
2023/09/27 06:30:17;;;;;;;13.32;8.88;;;;;;;16.59;82.99;101649.22;1822734;79;21012;-79
2023/09/27 06:32:48;;;;;;;14.15;8.68;;;;;;;16.61;82.80;101644.33;1770461;79;21545;-79
2023/09/27 06:35:17;;;;;;;18.82;8.80;;;;;;;16.64;82.74;101648.92;1822894;79;21068;-78
2023/09/27 06:37:49;;;;;;;15.03;8.88;;;;;;;16.70;82.58;101655.05;1822883;79;21424;-78
2023/09/27 06:40:17;;;;;;;12.88;8.58;;;;;;;16.74;82.35;101659.64;1822790;79;21005;-80
2023/09/27 06:42:46;;;;;;;14.45;8.65;;;;;;;16.80;82.19;101657.42;1822897;79;21075;-79
2023/09/27 06:45:15;;;;;;;13.45;9.18;;;;;;;16.87;81.93;101658.83;1822835;79;21499;-76
2023/09/27 06:47:47;;;;;;;15.32;9.00;;;;;;;16.93;81.65;101654.72;1822831;79;21012;-78
2023/09/27 06:50:20;;;;;;;13.10;9.03;;;;;;;16.98;81.35;101654.09;1822952;79;20989;-80
2023/09/27 06:52:49;;;;;;;16.60;9.78;;;;;;;17.02;81.22;101655.38;1822903;79;21000;-78
2023/09/27 06:55:20;;;;;;;13.20;8.78;;;;;;;17.07;81.07;101656.98;1822647;79;21492;-74
2023/09/27 06:57:52;;;;;;;14.03;9.25;;;;;;;17.13;80.98;101659.45;1822853;79;21067;-78
2023/09/27 07:00:24;;;;;;;16.85;9.23;;;;;;;17.19;80.79;101661.38;1822783;79;21091;-78
2023/09/27 07:02:52;;;;;;;18.80;9.83;;;;;;;17.24;80.47;101659.68;1822672;78;21057;-80
2023/09/27 07:05:22;;;;;;;15.03;10.23;;;;;;;17.30;80.42;101660.75;1822714;79;21024;-78
2023/09/27 07:07:53;;;;;;;17.07;10.68;;;;;;;17.37;80.28;101661.62;1822668;79;21429;-80
2023/09/27 07:10:24;;;;;;;15.03;9.00;;;;;;;17.43;80.00;101663.00;1795788;79;21064;-80
2023/09/27 07:12:54;;;;;;;17.52;8.70;;;;;;;17.50;79.59;101662.16;1822654;79;21020;-81
2023/09/27 07:15:23;;;;;;;12.00;8.23;;;;;;;17.54;79.26;101666.20;1822862;79;21017;-79
2023/09/27 07:17:52;;;;;;;12.47;8.73;;;;;;;17.60;79.03;101662.08;1822806;79;21020;-82
2023/09/27 07:20:27;;;;;;;16.07;10.00;;;;;;;17.65;78.67;101660.05;1822776;79;20989;-80
2023/09/27 07:22:56;;;;;;;15.10;8.75;;;;;;;17.69;78.39;101661.37;1796897;79;21064;-80
2023/09/27 07:25:28;;;;;;;14.38;9.15;;;;;;;17.73;78.12;101659.34;1822834;79;21066;-80
2023/09/27 07:27:57;;;;;;;14.73;8.53;;;;;;;17.77;77.87;101670.85;1822673;79;21474;-78
2023/09/27 07:30:26;;;;;;;13.85;8.50;;;;;;;17.79;77.63;101671.48;1822850;79;21072;-78
2023/09/27 07:32:56;;;;;;;14.63;9.48;;;;;;;17.82;77.45;101667.44;1822679;79;21515;-76
2023/09/27 07:35:33;;;;;;;19.32;8.95;;;;;;;17.83;77.24;101657.52;1822980;78;21056;-81
2023/09/27 07:38:02;;;;;;;15.78;8.93;;;;;;;17.89;77.13;101665.51;1822870;79;21085;-79
2023/09/27 07:40:32;;;;;;;13.53;8.78;;;;;;;17.92;76.86;101668.70;1795402;79;21028;-79
2023/09/27 07:43:01;;;;;;;12.45;8.38;;;;;;;17.95;76.52;101666.03;1822795;79;21087;-79
2023/09/27 07:45:33;;;;;;;16.07;8.00;;;;;;;18.02;76.52;101663.56;1822880;79;20997;-80
2023/09/27 07:48:01;;;;;;;15.85;8.10;;;;;;;18.26;75.98;101657.03;1822858;79;21040;-77
2023/09/27 07:50:31;;;;;;;10.95;7.95;;;;;;;18.65;75.57;101665.78;1822760;79;21547;-78
2023/09/27 07:53:03;;;;;;;13.35;8.13;;;;;;;19.10;74.55;101663.87;1824810;77;21079;-78
2023/09/27 07:55:46;;;;;;;14.40;8.13;;;;;;;19.63;73.24;101656.59;1800488;79;21060;-77
2023/09/27 07:58:15;;;;;;;18.57;7.78;;;;;;;20.19;71.33;101659.81;1815986;79;21050;-76
2023/09/27 08:00:44;;;;;;;12.07;8.43;;;;;;;20.73;68.22;101654.80;1817792;78;21532;-73
2023/09/27 08:03:18;;;;;;;16.40;8.43;;;;;;;21.20;65.95;101656.41;1798895;80;21012;-71
2023/09/27 08:05:46;;;;;;;13.08;7.97;;;;;;;21.61;64.61;101657.54;1825008;78;21023;-71
2023/09/27 08:08:16;;;;;;;13.93;8.23;;;;;;;21.96;62.38;101657.02;1799000;80;21109;-71
2023/09/27 08:10:45;;;;;;;12.35;8.00;;;;;;;22.25;60.44;101656.64;1823977;78;21007;-72
2023/09/27 08:13:18;;;;;;;13.72;7.70;;;;;;;22.52;59.73;101654.16;1766926;81;21070;-71
2023/09/27 08:15:49;;;;;;;16.50;7.70;;;;;;;22.85;59.28;101652.67;1823458;79;20995;-71
2023/09/27 08:18:18;;;;;;;12.68;8.03;;;;;;;23.18;57.64;101649.11;1767055;81;21937;-71
2023/09/27 08:20:47;;;;;;;11.38;7.72;;;;;;;23.37;56.95;101647.78;1823276;79;21487;-73
2023/09/27 08:23:16;;;;;;;14.15;7.72;;;;;;;23.54;55.86;101643.08;1766950;81;21050;-72
2023/09/27 08:25:46;;;;;;;11.20;8.35;;;;;;;23.71;54.89;101643.12;1823360;79;21047;-71
2023/09/27 08:28:16;;;;;;;23.35;8.40;;;;;;;23.82;54.49;101638.53;1786003;80;21447;-70
2023/09/27 08:30:47;;;;;;;12.50;7.70;;;;;;;23.89;54.10;101638.65;1819604;79;21504;-70
2023/09/27 08:33:16;;;;;;;11.25;7.05;;;;;;;23.97;54.09;101635.97;1819442;78;21073;-71
2023/09/27 08:35:45;;;;;;;9.73;7.42;;;;;;;24.18;53.43;101639.95;1819506;79;21488;-69
2023/09/27 08:38:15;;;;;;;12.28;7.58;;;;;;;24.21;52.92;101638.88;1819594;79;21477;-70
2023/09/27 08:40:47;;;;;;;12.28;8.00;;;;;;;24.19;52.36;101632.69;1819764;78;21484;-70
2023/09/27 08:43:16;;;;;;;13.68;7.83;;;;;;;24.07;52.67;101633.91;1793556;79;21062;-68
2023/09/27 08:45:45;;;;;;;10.90;7.22;;;;;;;23.88;53.05;101635.55;1819502;78;21045;-69
2023/09/27 08:48:18;;;;;;;12.43;7.83;;;;;;;23.67;53.32;101625.98;1819667;79;21013;-69
2023/09/27 08:50:45;;;;;;;14.95;7.58;;;;;;;23.51;53.66;101632.41;1816326;78;21044;-69
2023/09/27 08:53:15;;;;;;;12.00;7.47;;;;;;;23.33;54.12;101627.02;1816437;79;21132;-68
2023/09/27 08:55:51;;;;;;;12.88;7.35;;;;;;;23.23;54.59;101626.83;1816271;79;21029;-70
2023/09/27 08:58:20;;;;;;;12.70;7.33;;;;;;;23.15;54.83;101628.64;1815779;78;20999;-72
2023/09/27 09:00:50;;;;;;;11.28;7.50;;;;;;;23.06;55.12;101618.41;1818473;78;21059;-72
2023/09/27 09:03:22;;;;;;;14.50;8.03;;;;;;;22.97;55.00;101623.56;1885779;76;21414;-71
2023/09/27 09:05:53;;;;;;;11.78;7.50;;;;;;;22.80;55.53;101621.27;1810766;79;20991;-71
2023/09/27 09:08:22;;;;;;;11.63;8.05;;;;;;;22.70;56.08;101622.40;1885393;76;21026;-72
2023/09/27 09:10:55;;;;;;;13.30;8.05;;;;;;;22.68;56.31;101624.05;1806645;79;21471;-73
2023/09/27 09:13:24;;;;;;;15.58;8.50;;;;;;;22.66;56.41;101620.66;1885321;76;21450;-71
2023/09/27 09:15:53;;;;;;;17.50;9.60;;;;;;;22.63;56.52;101621.15;1779517;79;21079;-71
2023/09/27 09:18:36;;;;;;;12.58;8.65;;;;;;;22.60;56.71;101624.98;1815870;76;21042;-71
2023/09/27 09:21:08;;;;;;;15.38;8.60;;;;;;;22.56;56.81;101613.45;1810766;79;21008;-72
2023/09/27 09:23:38;;;;;;;18.00;8.85;;;;;;;22.48;57.03;101611.60;1885469;76;21454;-70
2023/09/27 09:26:11;;;;;;;15.03;9.10;;;;;;;22.42;57.32;101617.63;1810832;79;21043;-71
2023/09/27 09:29:00;;;;;;;15.80;8.55;;;;;;;22.38;57.67;101610.84;1885487;76;20964;-71
2023/09/27 09:31:30;;;;;;;12.80;8.90;;;;;;;22.34;57.76;101611.88;1810921;79;21049;-71
2023/09/27 09:34:08;;;;;;;11.78;8.63;;;;;;;22.30;58.07;101609.28;1885300;76;21030;-72
2023/09/27 09:36:37;;;;;;;;;;;;;;;22.30;58.19;101611.22;1813505;79;21110;-70
2023/09/27 09:39:14;;;;;;;14.63;7.80;;;;;;;22.30;58.25;101605.64;1810822;79;20212;-74
2023/09/27 09:41:53;;;;;;;13.10;8.40;;;;;;;22.29;58.48;101603.39;1885111;76;21427;-73
2023/09/27 09:44:24;;;;;;;17.07;9.85;;;;;;;22.34;58.65;101604.05;1810801;79;21089;-72
2023/09/27 09:46:54;;;;;;;11.75;8.80;;;;;;;22.36;58.50;101604.66;1872025;76;20979;-72
2023/09/27 09:49:22;;;;;;;12.03;8.60;;;;;;;22.37;58.34;101601.61;1851017;77;21054;-73
2023/09/27 09:51:52;;;;;;;15.72;8.88;;;;;;;22.32;58.38;101596.47;1850940;77;21044;-72
2023/09/27 09:54:47;;;;;;;16.97;8.78;;;;;;;22.27;58.34;101598.60;1851112;77;21066;-74
2023/09/27 09:57:19;;;;;;;13.32;8.10;;;;;;;22.24;58.42;101590.72;1851279;77;21477;-74
2023/09/27 10:00:17;;;;;;;12.13;8.13;;;;;;;22.18;58.73;101587.52;1846488;77;21023;-71
2023/09/27 10:02:53;;;;;;;9.93;7.90;;;;;;;22.18;58.78;101588.06;1828339;78;21033;-73
2023/09/27 10:05:23;;;;;;;13.55;8.75;;;;;;;22.20;58.72;101589.52;1828378;78;20983;-75
2023/09/27 10:07:52;;;;;;;11.85;7.92;;;;;;;22.19;58.51;101582.23;1828281;78;21030;-74
2023/09/27 10:10:22;;;;;;;13.85;9.00;;;;;;;22.17;58.56;101580.23;1828402;78;21038;-73
2023/09/27 10:12:52;;;;;;;11.00;7.80;;;;;;;22.18;58.55;101577.74;1828345;78;21084;-71
2023/09/27 10:15:22;;;;;;;19.32;8.60;;;;;;;22.18;58.52;101574.10;1828288;78;21030;-72
2023/09/27 10:17:52;;;;;;;13.28;8.23;;;;;;;22.19;58.69;101573.86;1828272;78;21108;-70
2023/09/27 10:20:22;;;;;;;11.43;7.55;;;;;;;22.23;58.48;101570.88;1828468;78;21038;-73
2023/09/27 10:22:52;;;;;;;13.72;7.90;;;;;;;22.27;58.14;101565.09;1791887;80;21077;-72
2023/09/27 10:25:32;;;;;;;12.10;7.90;;;;;;;22.28;58.03;101570.13;1791710;80;21467;-72
2023/09/27 10:28:08;;;;;;;12.28;8.30;;;;;;;22.27;58.17;101570.67;1828415;78;21113;-72
2023/09/27 10:30:48;;;;;;;17.77;8.23;;;;;;;22.27;58.03;101565.09;1795973;79;21023;-72
2023/09/27 10:33:29;;;;;;;13.70;7.60;;;;;;;22.25;58.12;101564.49;1828360;78;21022;-72
2023/09/27 10:36:16;;;;;;;9.30;7.00;;;;;;;22.25;57.47;101558.91;1791458;80;21003;-72
2023/09/27 10:38:53;;;;;;;11.85;7.37;;;;;;;22.20;56.52;101562.14;1791774;80;21094;-72
2023/09/27 10:41:43;;;;;;;14.60;6.97;;;;;;;22.17;56.30;101558.45;1791722;79;21022;-71
2023/09/27 10:44:12;;;;;;;11.83;6.78;;;;;;;22.17;56.69;101557.90;1828235;78;21050;-72
2023/09/27 10:46:47;;;;;;;9.88;6.87;;;;;;;22.18;56.98;101551.77;1828223;78;21650;-71
2023/09/27 10:49:24;;;;;;;10.88;7.75;;;;;;;22.22;56.60;101553.81;1825972;78;21050;-71
2023/09/27 10:51:54;;;;;;;12.03;7.53;;;;;;;22.24;56.71;101552.17;1800734;80;21084;-71
2023/09/27 10:54:26;;;;;;;12.03;7.10;;;;;;;22.25;56.84;101550.53;1799273;79;21050;-71
2023/09/27 10:56:58;;;;;;;9.88;6.95;;;;;;;22.27;56.86;101546.94;1800721;79;21014;-71
2023/09/27 10:59:27;;;;;;;9.38;6.12;;;;;;;22.31;57.00;101542.56;1800659;79;21422;-73
2023/09/27 11:02:02;;;;;;;9.45;6.35;;;;;;;22.34;56.22;101542.61;1824936;78;21038;-74
2023/09/27 11:04:36;;;;;;;13.03;7.00;;;;;;;22.37;56.07;101540.17;1833313;78;21003;-71
2023/09/27 11:07:04;;;;;;;9.85;6.80;;;;;;;22.39;56.05;101535.19;1833464;77;21038;-70
2023/09/27 11:09:44;;;;;;;11.60;7.65;;;;;;;22.42;56.23;101533.84;1833219;78;20991;-70
2023/09/27 11:12:13;;;;;;;10.78;6.87;;;;;;;22.44;56.36;101533.89;1833246;77;21097;-71
2023/09/27 11:14:48;;;;;;;11.97;7.22;;;;;;;22.46;56.49;101537.28;1785417;78;21427;-70
2023/09/27 11:17:23;;;;;;;11.35;7.33;;;;;;;22.51;56.66;101535.14;1833282;78;21031;-71
2023/09/27 11:19:53;;;;;;;15.48;7.42;;;;;;;22.55;56.33;101532.69;1833240;78;21042;-70
2023/09/27 11:22:28;;;;;;;13.70;7.03;;;;;;;22.56;56.51;101528.80;1833205;78;21002;-72
2023/09/27 11:24:58;;;;;;;11.12;6.72;;;;;;;22.59;56.18;101530.55;1833543;78;21015;-71
2023/09/27 11:27:27;;;;;;;12.65;6.78;;;;;;;22.66;55.88;101531.23;1833345;78;21093;-70
2023/09/27 11:29:57;;;;;;;12.23;7.28;;;;;;;22.69;55.67;101525.15;1833380;78;21461;-72
2023/09/27 11:32:26;;;;;;;10.20;6.95;;;;;;;22.70;55.53;101524.59;1833142;78;21011;-70